createdAt,value
2019-05-19T00:03:36.171Z,26.50
2019-05-19T00:08:37.942Z,22.97
2019-05-19T00:13:39.428Z,31.57
2019-05-19T00:18:41.111Z,26.57
2019-05-19T00:23:42.620Z,31.00
2019-05-19T00:28:44.226Z,31.33
2019-05-19T00:33:45.882Z,21.83
2019-05-19T00:38:47.469Z,21.90
2019-05-19T00:43:49.166Z,32.23
2019-05-19T00:48:52.165Z,23.30
2019-05-19T00:53:53.885Z,30.23
2019-05-19T00:58:57.815Z,27.07
2019-05-19T01:03:59.493Z,34.80
2019-05-19T01:09:01.066Z,31.23
2019-05-19T01:14:03.940Z,16.00
2019-05-19T01:19:05.522Z,18.17
2019-05-19T01:24:06.990Z,16.80
2019-05-19T01:29:08.599Z,17.93
2019-05-19T01:34:10.073Z,18.97
2019-05-19T01:39:11.548Z,26.53
2019-05-19T01:44:13.167Z,23.17
2019-05-19T01:49:14.650Z,24.00
2019-05-19T01:54:16.800Z,18.70
2019-05-19T01:59:18.463Z,19.73
2019-05-19T02:04:19.931Z,17.77
2019-05-19T02:09:21.408Z,17.03
2019-05-19T02:14:23.098Z,21.37
2019-05-19T02:19:24.597Z,18.33
2019-05-19T02:24:26.162Z,19.80
2019-05-19T02:29:27.679Z,17.03
2019-05-19T02:34:29.162Z,26.53
2019-05-19T02:39:30.636Z,17.30
2019-05-19T02:44:35.925Z,20.43
2019-05-19T02:49:39.397Z,22.37
2019-05-19T02:54:41.273Z,20.63
2019-05-19T02:59:43.998Z,18.60
2019-05-19T03:04:45.477Z,16.90
2019-05-19T03:09:46.954Z,24.63
2019-05-19T03:14:48.444Z,20.70
2019-05-19T03:19:49.913Z,18.10
2019-05-19T03:24:51.374Z,18.50
2019-05-19T03:29:54.813Z,15.97
2019-05-19T03:34:56.294Z,15.47
2019-05-19T03:39:57.882Z,15.70
2019-05-19T03:44:59.394Z,15.53
2019-05-19T03:50:00.977Z,15.30
2019-05-19T03:55:05.467Z,14.10
2019-05-19T04:00:08.690Z,17.13
2019-05-19T04:05:11.065Z,17.33
2019-05-19T04:10:13.856Z,13.63
2019-05-19T04:15:16.330Z,14.70
2019-05-19T04:20:17.914Z,14.00
2019-05-19T04:25:19.387Z,14.47
2019-05-19T04:30:21.123Z,12.33
2019-05-19T04:35:22.706Z,13.63
2019-05-19T04:40:24.192Z,14.07
2019-05-19T04:45:25.687Z,13.50
2019-05-19T04:50:27.165Z,14.83
2019-05-19T04:55:28.844Z,12.50
2019-05-19T05:00:30.362Z,26.50
2019-05-19T05:05:31.834Z,14.37
2019-05-19T05:10:33.448Z,15.23
2019-05-19T05:15:34.923Z,19.83
2019-05-19T05:20:36.402Z,19.93
2019-05-19T05:25:37.878Z,16.17
2019-05-19T05:30:39.395Z,14.43
2019-05-19T05:35:40.867Z,11.50
2019-05-19T05:40:42.349Z,12.93
2019-05-19T05:45:43.879Z,12.57
2019-05-19T05:50:45.386Z,12.20
2019-05-19T05:55:46.979Z,13.57
2019-05-19T06:00:48.603Z,13.40
2019-05-19T06:05:50.086Z,14.03
2019-05-19T06:10:52.783Z,12.00
2019-05-19T06:15:54.321Z,12.20
2019-05-19T06:20:55.811Z,11.10
2019-05-19T06:25:57.281Z,13.20
2019-05-19T06:30:58.899Z,12.77
2019-05-19T06:36:00.387Z,12.00
2019-05-19T06:41:01.864Z,11.80
2019-05-19T06:46:03.588Z,10.73
2019-05-19T06:51:05.060Z,9.03
2019-05-19T06:56:06.634Z,9.77
2019-05-19T07:01:08.144Z,10.67
2019-05-19T07:06:09.730Z,11.07
2019-05-19T07:11:11.218Z,12.10
2019-05-19T07:16:12.707Z,10.87
2019-05-19T07:21:14.193Z,9.10
2019-05-19T07:26:15.672Z,12.03
2019-05-19T07:31:17.202Z,10.03
2019-05-19T07:36:18.685Z,9.70
2019-05-19T07:41:20.261Z,9.33
2019-05-19T07:46:22.972Z,10.37
2019-05-19T07:51:24.577Z,11.97
2019-05-19T07:56:26.051Z,9.37
2019-05-19T08:01:28.286Z,9.97
2019-05-19T08:06:29.763Z,9.10
2019-05-19T08:11:31.240Z,8.90
2019-05-19T08:16:32.712Z,14.13
2019-05-19T08:21:34.200Z,9.63
2019-05-19T08:26:35.668Z,12.77
2019-05-19T08:31:38.378Z,12.30
2019-05-19T08:36:39.885Z,11.33
2019-05-19T08:41:41.378Z,10.47
2019-05-19T08:46:43.327Z,10.23
2019-05-19T08:51:44.909Z,9.97
2019-05-19T08:56:46.371Z,11.10
2019-05-19T09:01:47.891Z,12.07
2019-05-19T09:06:49.372Z,12.83
2019-05-19T09:11:50.839Z,12.40
2019-05-19T09:16:52.319Z,11.87
2019-05-19T09:21:53.904Z,11.83
2019-05-19T09:26:55.481Z,11.80
2019-05-19T09:31:57.002Z,11.00
2019-05-19T09:36:58.683Z,9.87
2019-05-19T09:42:00.159Z,11.13
2019-05-19T09:47:01.657Z,11.27
2019-05-19T09:52:04.839Z,10.40
2019-05-19T09:57:06.445Z,10.90
2019-05-19T10:02:08.220Z,11.57
2019-05-19T10:07:09.994Z,12.50
2019-05-19T10:12:11.659Z,11.90
2019-05-19T10:17:13.335Z,13.03
2019-05-19T10:22:14.923Z,13.37
2019-05-19T10:27:16.834Z,11.20
2019-05-19T10:32:18.682Z,11.00
2019-05-19T10:37:21.387Z,8.80
2019-05-19T10:42:22.864Z,10.63
2019-05-19T10:47:24.378Z,15.17
2019-05-19T10:52:25.883Z,14.83
2019-05-19T10:57:27.342Z,14.53
2019-05-19T11:02:28.977Z,11.07
2019-05-19T11:07:30.454Z,12.40
2019-05-19T11:12:32.037Z,14.00
2019-05-19T11:17:33.615Z,12.83
2019-05-19T11:22:35.098Z,11.78
2019-05-19T11:27:36.587Z,11.27
2019-05-19T11:32:38.109Z,12.27
2019-05-19T11:37:39.592Z,9.27
2019-05-19T11:42:41.117Z,10.60
2019-05-19T11:47:42.613Z,11.70
2019-05-19T11:52:44.382Z,12.90
2019-05-19T11:57:46.100Z,10.90
2019-05-19T12:02:47.830Z,11.33
2019-05-19T12:07:49.409Z,10.28
2019-05-19T12:12:50.993Z,10.82
2019-05-19T12:17:52.671Z,9.63
2019-05-19T12:22:54.952Z,10.48
2019-05-19T12:27:56.581Z,5.58
2019-05-19T12:32:59.506Z,4.55
2019-05-19T12:38:02.245Z,5.33
2019-05-19T12:43:03.970Z,5.30
2019-05-19T12:48:05.457Z,5.13
2019-05-19T12:53:07.082Z,3.33
2019-05-19T12:58:08.766Z,3.97
2019-05-19T13:03:10.412Z,3.87
2019-05-19T13:08:12.012Z,3.50
2019-05-19T13:13:13.488Z,3.40
2019-05-19T13:18:14.965Z,3.60
2019-05-19T13:23:16.452Z,4.10
2019-05-19T13:28:18.019Z,4.53
2019-05-19T13:33:19.667Z,5.40
2019-05-19T13:38:22.247Z,4.57
2019-05-19T13:43:26.364Z,3.40
2019-05-19T13:48:27.702Z,3.47
2019-05-19T13:53:29.185Z,3.07
2019-05-19T13:58:30.980Z,2.90
2019-05-19T14:03:32.595Z,3.20
2019-05-19T14:08:34.121Z,4.27
2019-05-19T14:13:35.598Z,4.23
2019-05-19T14:18:37.073Z,3.63
2019-05-19T14:23:38.549Z,3.50
2019-05-19T14:28:41.122Z,3.63
2019-05-19T14:33:42.605Z,3.90
2019-05-19T14:38:59.805Z,3.70
2019-05-19T14:44:03.503Z,3.97
2019-05-19T14:49:05.026Z,3.57
2019-05-19T14:54:06.611Z,3.37
2019-05-19T14:59:08.091Z,3.90
2019-05-19T15:04:09.571Z,3.60
2019-05-19T15:09:11.198Z,3.83
2019-05-19T15:14:12.781Z,4.17
2019-05-19T15:19:14.360Z,4.27
2019-05-19T15:24:15.837Z,3.87
2019-05-19T15:29:17.332Z,4.70
2019-05-19T15:34:18.881Z,4.50
2019-05-19T15:39:20.755Z,4.33
2019-05-19T15:44:22.274Z,4.80
2019-05-19T15:49:23.755Z,4.57
2019-05-19T15:54:25.336Z,5.23
2019-05-19T15:59:26.922Z,5.43
2019-05-19T16:04:28.427Z,5.30
2019-05-19T16:09:30.039Z,5.17
2019-05-19T16:14:31.512Z,5.00
2019-05-19T16:19:32.993Z,5.37
2019-05-19T16:24:34.474Z,5.93
2019-05-19T16:29:36.049Z,6.50
2019-05-19T16:34:37.647Z,4.93
2019-05-19T16:39:39.577Z,5.00
2019-05-19T16:44:41.103Z,5.20
2019-05-19T16:49:42.802Z,5.63
2019-05-19T16:54:49.202Z,6.90
2019-05-19T16:59:50.683Z,6.67
2019-05-19T17:04:52.154Z,6.77
2019-05-19T17:09:53.674Z,7.23
2019-05-19T17:14:55.159Z,8.60
2019-05-19T17:19:56.640Z,7.87
2019-05-19T17:25:00.339Z,7.67
2019-05-19T17:30:06.886Z,6.57
2019-05-19T17:35:09.366Z,6.17
2019-05-19T17:40:12.185Z,6.47
2019-05-19T17:45:14.667Z,6.90
2019-05-19T17:50:32.459Z,8.07
2019-05-19T17:55:35.256Z,8.97
2019-05-19T18:00:40.128Z,8.93
2019-05-19T18:05:41.710Z,13.20
2019-05-19T18:10:43.333Z,7.50
2019-05-19T18:15:44.948Z,8.47
2019-05-19T18:20:47.158Z,15.40
2019-05-19T18:25:48.842Z,10.80
2019-05-19T18:30:50.325Z,7.83
2019-05-19T18:35:52.919Z,8.90
2019-05-19T18:40:54.488Z,9.17
2019-05-19T18:45:56.061Z,9.67
2019-05-19T18:50:57.582Z,7.90
2019-05-19T18:55:59.264Z,6.30
2019-05-19T19:01:00.737Z,6.90
2019-05-19T19:06:02.425Z,7.53
2019-05-19T19:11:04.110Z,8.70
2019-05-19T19:16:05.635Z,7.83
2019-05-19T19:21:07.289Z,7.77
2019-05-19T19:26:08.764Z,6.93
2019-05-19T19:31:10.249Z,7.83
2019-05-19T19:36:11.725Z,8.17
2019-05-19T19:41:13.301Z,8.93
2019-05-19T19:46:14.930Z,12.83
2019-05-19T19:51:17.514Z,10.57
2019-05-19T19:56:18.989Z,9.27
2019-05-19T20:01:20.555Z,9.83
2019-05-19T20:06:22.036Z,20.90
2019-05-19T20:11:23.826Z,10.47
2019-05-19T20:16:25.340Z,29.83
2019-05-19T20:21:26.959Z,21.33
2019-05-19T20:26:28.441Z,12.17
2019-05-19T20:31:31.509Z,14.43
2019-05-19T20:36:33.253Z,14.57
2019-05-19T20:41:34.891Z,16.20
2019-05-19T20:46:36.500Z,15.83
2019-05-19T20:51:37.977Z,17.93
2019-05-19T20:56:39.458Z,16.90
2019-05-19T21:01:40.935Z,17.10
2019-05-19T21:06:42.411Z,17.67
2019-05-19T21:11:44.163Z,17.83
2019-05-19T21:16:45.647Z,19.90
2019-05-19T21:21:47.531Z,16.87
2019-05-19T21:26:49.115Z,24.57
2019-05-19T21:31:50.586Z,19.67
2019-05-19T21:36:52.059Z,19.37
2019-05-19T21:41:53.593Z,26.23
2019-05-19T21:46:55.112Z,18.60
2019-05-19T21:51:56.590Z,14.73
2019-05-19T21:56:58.177Z,13.87
2019-05-19T22:02:00.167Z,14.60
2019-05-19T22:07:09.559Z,15.10
2019-05-19T22:12:11.189Z,18.17
2019-05-19T22:17:12.664Z,21.70
2019-05-19T22:22:14.238Z,14.73
2019-05-19T22:27:15.721Z,17.93
2019-05-19T22:32:17.195Z,15.60
2019-05-19T22:37:18.663Z,16.37
2019-05-19T22:42:20.230Z,47.67
2019-05-19T22:47:21.730Z,20.10
2019-05-19T22:52:23.207Z,94.60
2019-05-19T22:57:24.688Z,19.43
2019-05-19T23:02:26.175Z,20.73
2019-05-19T23:07:27.665Z,17.37
2019-05-19T23:12:29.180Z,17.80
2019-05-19T23:17:30.763Z,18.37
2019-05-19T23:22:32.260Z,18.23
2019-05-19T23:27:33.923Z,20.73
2019-05-19T23:32:35.410Z,20.67
2019-05-19T23:37:36.888Z,19.17
2019-05-19T23:42:38.535Z,21.33
2019-05-19T23:47:40.054Z,20.13
2019-05-19T23:52:41.524Z,16.60
2019-05-19T23:57:43.106Z,19.17
